Stella Ada — 9V9082 — position and weather

sailwx.info

Track history (hours):
 
Tides and Currents Weather Stations Pressure Air Temp Water Temp Dewpoint Dewpoint Depression Visibility Wind Speed Wind Dir Waves Ship Positions

Stella Ada

Last reported at 2015-May-17 17:18 UTC. Time now 2015-May-24 03:19 UTC.
Position N 22°08' E 119°54'.

Length 296 m; draft 9 m.

Type: Cargo ship. MMSI: 566089000.

Date/timePositionNaut miles runAvg speedWind from/ knotsBaromVisibWave heightAir tempDewpointWater temp
2015-May-17 17:18N 22°08' E 119°54'1012.7
2015-May-17 16:29N 22°18' E 119°54'1312.4
2015-May-17 15:26N 22°31' E 119°55'1112.7
2015-May-17 14:33N 22°42' E 119°54'1312.8
2015-May-17 13:33N 22°55' E 119°54'39312.3
2015-May-16 05:32N 29°03' E 122°25'1513.7
2015-May-16 04:25N 29°18' E 122°28'1213.9
2015-May-16 03:33N 29°30' E 122°27'10 7.0
2015-May-16 02:06N 29°41' E 122°25'0 0.3
2015-May-16 01:24N 29°41' E 122°25'0 0.2
2015-May-16 00:30N 29°41' E 122°25'0 0.1
2015-May-15 22:24N 29°41' E 122°25'0 0.1
2015-May-15 21:30N 29°41' E 122°25'0 0.0
2015-May-15 20:30N 29°41' E 122°25'0 0.0
2015-May-15 19:24N 29°41' E 122°25'0 0.0
2015-May-15 08:12N 29°41' E 122°25'0 0.0
2015-May-15 02:24N 29°41' E 122°25'0 0.1
2015-May-14 23:18N 29°41' E 122°25'0 0.1
2015-May-14 21:18N 29°41' E 122°25'0 0.1
2015-May-14 19:18N 29°40' E 122°25'0 0.0
2015-May-14 17:12N 29°40' E 122°25'0 0.0
2015-May-14 16:30N 29°40' E 122°25'0 0.1
2015-May-14 15:12N 29°41' E 122°25'0 0.0
2015-May-14 14:30N 29°41' E 122°25'1 0.9
2015-May-14 13:33N 29°41' E 122°26'7 6.8
2015-May-14 12:33N 29°44' E 122°33'9 9.0
2015-May-14 11:31N 29°51' E 122°40'1010.9
2015-May-14 10:33N 29°58' E 122°49'3411.2
2015-May-14 07:33N 30°30' E 123°01'11112.3
2015-May-13 22:32N 32°21' E 123°03'1111.4
2015-May-13 21:33N 32°32' E 123°04'1212.0
2015-May-13 20:33N 32°44' E 123°05'1312.7
2015-May-13 19:33N 32°57' E 123°05'1312.8
2015-May-13 18:33N 33°09' E 123°04'1312.7
2015-May-13 17:33N 33°22' E 123°05'1211.9
2015-May-13 16:33N 33°34' E 123°05'1211.4
2015-May-13 15:32N 33°46' E 123°06'1111.3
2015-May-13 14:33N 33°57' E 123°05'1111.3
2015-May-13 13:33N 34°08' E 123°05'1211.2
2015-May-13 12:32N 34°20' E 123°05'1111.4
2015-May-13 11:32N 34°31' E 123°05'1211.7
2015-May-13 10:33N 34°42' E 123°05'1211.9
2015-May-13 09:33N 34°54' E 123°05'11312.3
2015-May-13 00:20N 36°47' E 122°51'1212.6
2015-May-12 23:23N 36°59' E 122°50'3712.9
2015-May-12 20:32N 37°34' E 122°38'1613.0
2015-May-12 19:19N 37°44' E 122°22'1112.7
2015-May-12 18:28N 37°51' E 122°11'1212.5
2015-May-12 17:32N 37°58' E 122°00'1212.4
2015-May-12 16:33N 38°06' E 121°48'1912.6
2015-May-12 15:04N 38°16' E 121°28'712.4
2015-May-12 14:31N 38°21' E 121°22'11410.4
2015-May-12 03:32N 40°14' E 121°43'1111.3
2015-May-12 02:33N 40°18' E 121°57'7 5.6
2015-May-12 01:23N 40°18' E 122°05'0 0.0
2015-May-12 00:29N 40°18' E 122°05'0 0.0
2015-May-11 23:29N 40°18' E 122°05'0 0.0
2015-May-11 22:29N 40°18' E 122°05'0 0.0
2015-May-11 21:29N 40°18' E 122°05'0 0.0
2015-May-11 20:29N 40°18' E 122°05'0 0.0
2015-May-11 19:29N 40°18' E 122°05'0 0.0
2015-May-11 18:29N 40°18' E 122°05'0 0.0
2015-May-11 17:29N 40°18' E 122°05'0 0.0
2015-May-11 16:17N 40°18' E 122°05'0 0.0
2015-May-11 15:29N 40°18' E 122°05'0 0.0
2015-May-11 14:29N 40°18' E 122°05'0 0.0
2015-May-11 13:29N 40°18' E 122°05'0 0.0
2015-May-11 12:29N 40°18' E 122°05'0 0.0
2015-May-11 11:29N 40°18' E 122°05'0 0.0
2015-May-11 10:29N 40°18' E 122°05'0 0.0
2015-May-11 09:29N 40°18' E 122°05'0 0.0
2015-May-11 08:29N 40°18' E 122°05'0 0.0
2015-May-11 07:29N 40°18' E 122°05'0 0.0
2015-May-11 06:29N 40°18' E 122°05'0 0.0
2015-May-11 05:29N 40°18' E 122°05'0 0.0
2015-May-11 04:23N 40°18' E 122°05'0 0.0
2015-May-11 03:29N 40°18' E 122°05'0 0.0
2015-May-11 02:29N 40°18' E 122°05'0 0.0
2015-May-11 01:29N 40°18' E 122°05'0 0.0
2015-May-10 11:29N 40°18' E 122°05'0 0.0
2015-May-10 10:29N 40°18' E 122°05'0 0.0
2015-May-10 09:29N 40°18' E 122°05'0 0.0
2015-May-10 08:29N 40°18' E 122°05'0 0.0
2015-May-10 07:29N 40°18' E 122°05'  
Track history (hours):
 
Tides and Currents Weather Stations Pressure Air Temp Water Temp Dewpoint Dewpoint Depression Visibility Wind Speed Wind Dir Waves Ship Positions

Stella Ada

Last reported at 2015-May-17 17:18 UTC. Time now 2015-May-24 03:19 UTC.
Position N 22°08' E 119°54'.

Length 296 m; draft 9 m.

Type: Cargo ship. MMSI: 566089000.

Date/timePositionNaut miles runAvg speedWind from/ knotsBaromVisibWave heightAir tempDewpointWater temp
2015-May-17 17:18N 22°08' E 119°54'1012.7
2015-May-17 16:29N 22°18' E 119°54'1312.4
2015-May-17 15:26N 22°31' E 119°55'1112.7
2015-May-17 14:33N 22°42' E 119°54'1312.8
2015-May-17 13:33N 22°55' E 119°54'39312.3
2015-May-16 05:32N 29°03' E 122°25'1513.7
2015-May-16 04:25N 29°18' E 122°28'1213.9
2015-May-16 03:33N 29°30' E 122°27'10 7.0
2015-May-16 02:06N 29°41' E 122°25'0 0.3
2015-May-16 01:24N 29°41' E 122°25'0 0.2
2015-May-16 00:30N 29°41' E 122°25'0 0.1
2015-May-15 22:24N 29°41' E 122°25'0 0.1
2015-May-15 21:30N 29°41' E 122°25'0 0.0
2015-May-15 20:30N 29°41' E 122°25'0 0.0
2015-May-15 19:24N 29°41' E 122°25'0 0.0
2015-May-15 08:12N 29°41' E 122°25'0 0.0
2015-May-15 02:24N 29°41' E 122°25'0 0.1
2015-May-14 23:18N 29°41' E 122°25'0 0.1
2015-May-14 21:18N 29°41' E 122°25'0 0.1
2015-May-14 19:18N 29°40' E 122°25'0 0.0
2015-May-14 17:12N 29°40' E 122°25'0 0.0
2015-May-14 16:30N 29°40' E 122°25'0 0.1
2015-May-14 15:12N 29°41' E 122°25'0 0.0
2015-May-14 14:30N 29°41' E 122°25'1 0.9
2015-May-14 13:33N 29°41' E 122°26'7 6.8
2015-May-14 12:33N 29°44' E 122°33'9 9.0
2015-May-14 11:31N 29°51' E 122°40'1010.9
2015-May-14 10:33N 29°58' E 122°49'3411.2
2015-May-14 07:33N 30°30' E 123°01'11112.3
2015-May-13 22:32N 32°21' E 123°03'1111.4
2015-May-13 21:33N 32°32' E 123°04'1212.0
2015-May-13 20:33N 32°44' E 123°05'1312.7
2015-May-13 19:33N 32°57' E 123°05'1312.8
2015-May-13 18:33N 33°09' E 123°04'1312.7
2015-May-13 17:33N 33°22' E 123°05'1211.9
2015-May-13 16:33N 33°34' E 123°05'1211.4
2015-May-13 15:32N 33°46' E 123°06'1111.3
2015-May-13 14:33N 33°57' E 123°05'1111.3
2015-May-13 13:33N 34°08' E 123°05'1211.2
2015-May-13 12:32N 34°20' E 123°05'1111.4
2015-May-13 11:32N 34°31' E 123°05'1211.7
2015-May-13 10:33N 34°42' E 123°05'1211.9
2015-May-13 09:33N 34°54' E 123°05'11312.3
2015-May-13 00:20N 36°47' E 122°51'1212.6
2015-May-12 23:23N 36°59' E 122°50'3712.9
2015-May-12 20:32N 37°34' E 122°38'1613.0
2015-May-12 19:19N 37°44' E 122°22'1112.7
2015-May-12 18:28N 37°51' E 122°11'1212.5
2015-May-12 17:32N 37°58' E 122°00'1212.4
2015-May-12 16:33N 38°06' E 121°48'1912.6
2015-May-12 15:04N 38°16' E 121°28'712.4
2015-May-12 14:31N 38°21' E 121°22'11410.4
2015-May-12 03:32N 40°14' E 121°43'1111.3
2015-May-12 02:33N 40°18' E 121°57'7 5.6
2015-May-12 01:23N 40°18' E 122°05'0 0.0
2015-May-12 00:29N 40°18' E 122°05'0 0.0
2015-May-11 23:29N 40°18' E 122°05'0 0.0
2015-May-11 22:29N 40°18' E 122°05'0 0.0
2015-May-11 21:29N 40°18' E 122°05'0 0.0
2015-May-11 20:29N 40°18' E 122°05'0 0.0
2015-May-11 19:29N 40°18' E 122°05'0 0.0
2015-May-11 18:29N 40°18' E 122°05'0 0.0
2015-May-11 17:29N 40°18' E 122°05'0 0.0
2015-May-11 16:17N 40°18' E 122°05'0 0.0
2015-May-11 15:29N 40°18' E 122°05'0 0.0
2015-May-11 14:29N 40°18' E 122°05'0 0.0
2015-May-11 13:29N 40°18' E 122°05'0 0.0
2015-May-11 12:29N 40°18' E 122°05'0 0.0
2015-May-11 11:29N 40°18' E 122°05'0 0.0
2015-May-11 10:29N 40°18' E 122°05'0 0.0
2015-May-11 09:29N 40°18' E 122°05'0 0.0
2015-May-11 08:29N 40°18' E 122°05'0 0.0
2015-May-11 07:29N 40°18' E 122°05'0 0.0
2015-May-11 06:29N 40°18' E 122°05'0 0.0
2015-May-11 05:29N 40°18' E 122°05'0 0.0
2015-May-11 04:23N 40°18' E 122°05'0 0.0
2015-May-11 03:29N 40°18' E 122°05'0 0.0
2015-May-11 02:29N 40°18' E 122°05'0 0.0
2015-May-11 01:29N 40°18' E 122°05'0 0.0
2015-May-10 11:29N 40°18' E 122°05'0 0.0
2015-May-10 10:29N 40°18' E 122°05'0 0.0
2015-May-10 09:29N 40°18' E 122°05'0 0.0
2015-May-10 08:29N 40°18' E 122°05'0 0.0
2015-May-10 07:29N 40°18' E 122°05'  

Dump ship's entire track history